Terminal Aerodrome Forecast
Issued by NWS Albuquerque, NM

Home | Current Version | Previous Version | Text Only | Print | Product List | Glossary On
Versions: 1 2 3 4 5 6 7 8 9 10 11 12 13 14
000
FTUS45 KABQ 190500
TAFABQ
TAF
KABQ 190527Z 1906/2006 18005KT P6SM SCT050 BKN100
     FM191600 03005KT P6SM SCT025 BKN050
     FM191800 03005KT P6SM BKN050
     FM192300 36010KT P6SM VCSH BKN080
     FM200300 09010KT P6SM BKN100=

USA.gov is the U.S. government's official web portal to all federal, state and local government web resources and services.